Aviation Digital Data Service (ADDS)

Output produced by METARs form (2146 UTC 26 July 2016)
found at http://www.aviationweather.gov/adds/metars/
 
METAR text: KCMI 262053Z 12004KT 10SM CLR 28/20 A3002 RMK AO2 SLP161 T02830200 56013
Conditions at: KCMI (CHAMPAIGN/URBANA, IL, US) observed 2053 UTC 26 July 2016
Temperature: 28.3°C (83°F)
Dewpoint: 20.0°C (68°F) [RH = 61%]
Pressure (altimeter): 30.02 inches Hg (1016.7 mb)
[Sea-level pressure: 1016.1 mb]
Winds: from the ESE (120 degrees) at 5 MPH (4 knots; 2.1 m/s)
Visibility: 10 or more miles (16+ km)
Ceiling: at least 12,000 feet AGL
Clouds: sky clear below 12,000 feet AGL
Weather: no significant weather observed at this time

METAR text: KCMI 261953Z 14004KT 10SM CLR 28/21 A3004 RMK AO2 SLP164 T02780206
Conditions at: KCMI (CHAMPAIGN/URBANA, IL, US) observed 1953 UTC 26 July 2016
Temperature: 27.8°C (82°F)
Dewpoint: 20.6°C (69°F) [RH = 65%]
Pressure (altimeter): 30.04 inches Hg (1017.4 mb)
[Sea-level pressure: 1016.4 mb]
Winds: from the SE (140 degrees) at 5 MPH (4 knots; 2.1 m/s)
Visibility: 10 or more miles (16+ km)
Ceiling: at least 12,000 feet AGL
Clouds: sky clear below 12,000 feet AGL
Weather: no significant weather observed at this time

Forecast for: KCMI (CHAMPAIGN/URBANA, IL, US)
Text: KCMI 261735Z 2618/2718 13005KT P6SM SCT040 BKN150
Forecast period: 1800 to 2300 UTC 26 July 2016
Forecast type: FROM: standard forecast or significant change
Winds: from the SE (130 degrees) at 6 MPH (5 knots; 2.6 m/s)
Visibility: 6 or more miles (10+ km)
Ceiling: 15000 feet AGL
Clouds: scattered clouds at 4000 feet AGL
broken clouds at 15000 feet AGL
Weather: no significant weather forecast for this period
Text: FM262300 VRB03KT P6SM SCT150
Forecast period: 2300 UTC 26 July 2016 to 1400 UTC 27 July 2016
Forecast type: FROM: standard forecast or significant change
Winds: variable direction winds at 3 MPH (3 knots; 1.6 m/s)
Visibility: 6 or more miles (10+ km)
Clouds: scattered clouds at 15000 feet AGL
Weather: no significant weather forecast for this period
Text: FM271400 11005KT P6SM SKC
Forecast period: 1400 to 1800 UTC 27 July 2016
Forecast type: FROM: standard forecast or significant change
Winds: from the ESE (110 degrees) at 6 MPH (5 knots; 2.6 m/s)
Visibility: 6 or more miles (10+ km)
Clouds: clear skies
Weather: no significant weather forecast for this period